createdAt,value
2023-03-12T06:10:51.532Z,99481.81
2023-03-12T06:13:20.833Z,99494.84
2023-03-12T06:16:00.626Z,99498.31
2023-03-12T06:27:12.814Z,99473.00
2023-03-12T06:35:08.019Z,99464.22
2023-03-12T06:37:35.659Z,99458.09
2023-03-12T06:40:05.164Z,99456.34
2023-03-12T06:42:32.286Z,99450.22
2023-03-12T06:44:59.479Z,99451.06
2023-03-12T06:47:26.048Z,99453.66
2023-03-12T06:49:53.317Z,99452.78
2023-03-12T06:52:19.884Z,99451.91
2023-03-12T06:54:47.127Z,99448.38
2023-03-12T06:57:13.738Z,99439.63
2023-03-12T06:59:40.936Z,99439.56
2023-03-12T07:02:11.118Z,99438.66
2023-03-12T07:04:38.450Z,99435.13
2023-03-12T07:07:05.202Z,99436.81
2023-03-12T07:09:32.405Z,99449.84
2023-03-12T07:11:58.993Z,99449.78
2023-03-12T07:14:26.936Z,99443.63
2023-03-12T07:16:53.508Z,99444.44
2023-03-12T07:19:20.720Z,99433.09
2023-03-12T07:21:47.283Z,99442.63
2023-03-12T07:24:14.458Z,99446.97
2023-03-12T07:26:41.042Z,99453.97
2023-03-12T07:29:08.286Z,99448.66
2023-03-12T07:31:34.930Z,99453.84
2023-03-12T07:34:03.513Z,99454.63
2023-03-12T07:36:30.274Z,99440.66
2023-03-12T07:38:57.550Z,99438.00
2023-03-12T07:41:24.206Z,99438.84
2023-03-12T07:43:52.038Z,99443.13
2023-03-12T07:46:18.801Z,99433.50
2023-03-12T07:48:46.046Z,99424.72
2023-03-12T07:51:12.628Z,99430.81
2023-03-12T07:53:39.806Z,99434.28
2023-03-12T07:56:07.010Z,99425.53
2023-03-12T07:58:36.719Z,99420.25
2023-03-12T08:01:03.571Z,99419.34
2023-03-12T08:03:31.093Z,99412.25
2023-03-12T08:05:59.837Z,99396.44
2023-03-12T08:08:28.090Z,99385.84
2023-03-12T08:10:55.537Z,99398.81
2023-03-12T08:13:24.327Z,99393.44
2023-03-12T08:15:52.910Z,99394.13
2023-03-12T08:18:20.589Z,99386.16
2023-03-12T08:20:50.169Z,99388.81
2023-03-12T08:23:17.777Z,99382.66
2023-03-12T08:25:48.972Z,99386.00
2023-03-12T08:28:16.904Z,99385.97
2023-03-12T08:30:49.058Z,99381.53
2023-03-12T08:33:16.559Z,99375.38
2023-03-12T08:35:43.141Z,99372.75
2023-03-12T08:38:10.246Z,99380.59
2023-03-12T08:40:37.191Z,99376.22
2023-03-12T08:43:04.794Z,99389.22
2023-03-12T08:45:31.514Z,99390.88
2023-03-12T08:47:58.633Z,99388.16
2023-03-12T08:50:29.135Z,99383.72
2023-03-12T08:52:56.639Z,99381.09
2023-03-12T08:55:23.201Z,99383.63
2023-03-12T08:57:50.490Z,99380.19
2023-03-12T09:00:18.031Z,99377.59
2023-03-12T09:02:45.922Z,99378.38
2023-03-12T09:05:13.620Z,99375.78
2023-03-12T09:07:41.514Z,99376.72
2023-03-12T09:10:09.305Z,99381.09
2023-03-12T09:12:36.533Z,99386.34
2023-03-12T09:15:04.958Z,99386.25
2023-03-12T09:17:32.317Z,99387.16
2023-03-12T09:20:00.012Z,99387.16
2023-03-12T09:22:29.636Z,99385.38
2023-03-12T09:24:56.688Z,99381.00
2023-03-12T09:27:23.324Z,99376.53
2023-03-12T09:30:00.844Z,99368.59
2023-03-12T09:32:28.971Z,99372.03
2023-03-12T09:34:55.688Z,99377.25
2023-03-12T09:37:24.166Z,99377.28
2023-03-12T09:39:53.207Z,99376.53
2023-03-12T09:42:29.720Z,99382.72
2023-03-12T09:45:00.187Z,99381.97
2023-03-12T09:47:32.111Z,99380.22
2023-03-12T09:50:14.982Z,99369.75
2023-03-12T09:52:51.420Z,99361.03
2023-03-12T09:55:21.505Z,99363.84
2023-03-12T09:57:53.487Z,99358.53
2023-03-12T10:00:22.810Z,99359.38
2023-03-12T10:03:08.046Z,99359.31
2023-03-12T10:05:41.224Z,99352.41
2023-03-12T10:08:24.198Z,99356.88
2023-03-12T10:11:14.094Z,99350.66
2023-03-12T10:14:26.004Z,99344.66
2023-03-12T10:17:15.745Z,99352.50
2023-03-12T10:20:19.961Z,99331.44
2023-03-12T10:22:59.985Z,99331.38
2023-03-12T10:25:46.588Z,99335.88
2023-03-12T10:28:20.074Z,99320.94
2023-03-12T10:30:54.240Z,99320.00
2023-03-12T10:33:30.490Z,99319.16
2023-03-12T10:36:25.014Z,99318.22
2023-03-12T10:38:52.323Z,99321.78
2023-03-12T10:41:23.081Z,99319.16
2023-03-12T10:43:50.454Z,99323.56
2023-03-12T10:46:37.385Z,99323.50
2023-03-12T10:49:22.955Z,99325.19
2023-03-12T10:51:57.246Z,99327.81
2023-03-12T10:54:37.978Z,99334.91
2023-03-12T10:57:05.284Z,99334.13
2023-03-12T10:59:36.216Z,99321.84
2023-03-12T11:02:24.066Z,99320.06
2023-03-12T11:04:52.127Z,99314.69
2023-03-12T11:07:33.149Z,99319.00
2023-03-12T11:10:23.980Z,99325.97
2023-03-12T11:12:52.997Z,99318.09
2023-03-12T11:15:21.317Z,99305.09
2023-03-12T11:17:49.017Z,99306.00
2023-03-12T11:20:21.876Z,99298.06
2023-03-12T11:22:51.221Z,99301.56
2023-03-12T11:25:23.265Z,99291.00
2023-03-12T11:27:54.424Z,99291.78
2023-03-12T11:30:26.332Z,99297.94
2023-03-12T11:32:53.551Z,99297.03
2023-03-12T11:35:39.260Z,99296.03
2023-03-12T11:38:31.891Z,99288.94
2023-03-12T11:41:19.662Z,99291.50
2023-03-12T11:43:57.206Z,99302.81
2023-03-12T11:46:50.536Z,99308.84
2023-03-12T11:49:44.147Z,99302.81
2023-03-12T11:52:26.818Z,99290.50
2023-03-12T11:55:17.032Z,99294.84
2023-03-12T11:58:12.231Z,99294.78
2023-03-12T12:00:49.098Z,99284.34
2023-03-12T12:03:37.788Z,99278.22
2023-03-12T12:06:18.658Z,99283.41
2023-03-12T12:08:59.143Z,99272.00
2023-03-12T12:11:57.262Z,99271.06
2023-03-12T12:14:55.629Z,99272.84
2023-03-12T12:17:29.192Z,99262.41
2023-03-12T12:20:27.028Z,99243.09
2023-03-12T12:23:38.063Z,99251.69
2023-03-12T12:26:40.123Z,99262.09
2023-03-12T12:29:20.269Z,99254.94
2023-03-12T12:31:58.423Z,99252.31
2023-03-12T12:34:54.280Z,99251.25
2023-03-12T12:37:43.715Z,99249.44
2023-03-12T12:40:16.729Z,99241.47
2023-03-12T12:42:52.238Z,99254.59
2023-03-12T12:45:24.234Z,99235.22
2023-03-12T12:48:18.709Z,99238.53
2023-03-12T12:50:48.205Z,99235.88
2023-03-12T12:53:27.748Z,99246.31
2023-03-12T12:56:16.233Z,99238.34
2023-03-12T12:59:08.574Z,99235.56
2023-03-12T13:01:37.995Z,99231.06
2023-03-12T13:04:12.145Z,99235.31
2023-03-12T13:07:27.974Z,99234.31
2023-03-12T13:09:59.062Z,99235.97
2023-03-12T13:12:52.896Z,99228.00
2023-03-12T13:15:29.293Z,99231.31
2023-03-12T13:17:58.822Z,99221.59
2023-03-12T13:20:31.150Z,99229.41
2023-03-12T13:23:35.176Z,99235.63
2023-03-12T13:26:02.429Z,99234.72
2023-03-12T13:28:35.971Z,99230.19
2023-03-12T13:31:28.774Z,99228.41
2023-03-12T13:33:59.512Z,99231.91
2023-03-12T13:36:28.953Z,99230.94
2023-03-12T13:39:01.513Z,99229.91
2023-03-12T13:41:36.722Z,99228.91
2023-03-12T13:44:23.595Z,99229.66
2023-03-12T13:46:57.287Z,99233.97
2023-03-12T13:49:25.298Z,99222.50
2023-03-12T13:52:00.324Z,99225.00
2023-03-12T13:54:42.577Z,99226.63
2023-03-12T13:57:38.757Z,99209.97
2023-03-12T14:00:32.177Z,99200.97
2023-03-12T14:02:58.707Z,99199.13
2023-03-12T14:05:27.973Z,99208.63
2023-03-12T14:08:07.577Z,99200.63
2023-03-12T14:10:49.562Z,99202.22
2023-03-12T14:13:36.515Z,99203.94
2023-03-12T14:16:23.795Z,99185.38
2023-03-12T14:18:51.251Z,99197.28
2023-03-12T14:21:20.596Z,99194.44
2023-03-12T14:23:55.745Z,99187.72
2023-03-12T14:26:31.409Z,99191.91
2023-03-12T14:29:06.434Z,99192.31
2023-03-12T14:31:35.617Z,99198.28
2023-03-12T14:34:13.711Z,99205.94
2023-03-12T14:36:50.076Z,99209.97
2023-03-12T14:39:32.591Z,99213.22
2023-03-12T14:42:05.634Z,99210.19
2023-03-12T14:44:35.082Z,99215.59
2023-03-12T14:47:04.349Z,99218.13
2023-03-12T14:49:31.883Z,99211.63
2023-03-12T14:51:59.109Z,99216.84
2023-03-12T14:54:28.264Z,99210.78
2023-03-12T14:56:55.778Z,99214.78
2023-03-12T14:59:24.514Z,99220.78
2023-03-12T15:01:52.988Z,99213.78
2023-03-12T15:04:23.549Z,99206.75
2023-03-12T15:07:04.804Z,99207.28
2023-03-12T15:09:34.738Z,99201.09
2023-03-12T15:12:04.621Z,99206.34
2023-03-12T15:14:35.121Z,99206.03
2023-03-12T15:17:05.437Z,99208.41
2023-03-12T15:19:40.326Z,99203.13
2023-03-12T15:22:14.288Z,99201.38
2023-03-12T15:24:41.342Z,99189.88
2023-03-12T15:27:28.917Z,99179.09
2023-03-12T15:30:00.807Z,99180.47
2023-03-12T15:32:30.780Z,99178.44
2023-03-12T15:34:59.262Z,99176.31
2023-03-12T15:37:35.435Z,99180.81
2023-03-12T15:40:06.697Z,99179.88
2023-03-12T15:42:43.944Z,99179.75
2023-03-12T15:45:29.142Z,99183.88
2023-03-12T15:47:56.508Z,99190.81
2023-03-12T15:50:29.047Z,99188.91
2023-03-12T15:53:00.257Z,99186.44
2023-03-12T15:55:31.760Z,99187.47
2023-03-12T15:57:59.862Z,99178.56
2023-03-12T16:00:30.936Z,99189.66
2023-03-12T16:03:07.058Z,99185.88
2023-03-12T16:05:36.618Z,99182.22
2023-03-12T16:08:24.169Z,99185.63
2023-03-12T16:10:50.964Z,99183.69
2023-03-12T16:16:07.021Z,99181.09
2023-03-12T16:18:33.968Z,99184.56
2023-03-12T16:21:00.576Z,99183.59
2023-03-12T16:23:27.801Z,99179.19
2023-03-12T16:25:56.351Z,99175.88
2023-03-12T16:28:24.676Z,99181.16
2023-03-12T16:30:51.974Z,99170.41
2023-03-12T16:33:22.404Z,99176.34
2023-03-12T16:35:49.143Z,99175.38
2023-03-12T16:38:16.823Z,99173.69
2023-03-12T16:40:46.864Z,99166.53
2023-03-12T16:43:18.130Z,99176.91
2023-03-12T16:45:46.806Z,99183.09
2023-03-12T16:48:24.485Z,99197.25
2023-03-12T16:50:54.078Z,99194.84
2023-03-12T16:53:22.473Z,99201.91
2023-03-12T16:56:35.257Z,99197.66
2023-03-12T16:59:13.206Z,99200.31
2023-03-12T17:01:39.855Z,99197.72
2023-03-12T17:04:07.166Z,99196.84
2023-03-12T17:06:34.460Z,99194.84
2023-03-12T17:09:02.495Z,99198.25
2023-03-12T17:11:32.901Z,99203.56
2023-03-12T17:14:02.698Z,99201.06
2023-03-12T17:16:29.594Z,99204.63
2023-03-12T17:18:56.988Z,99199.34
2023-03-12T17:21:24.913Z,99211.41
2023-03-12T17:23:52.163Z,99206.97
2023-03-12T17:26:19.082Z,99206.22
2023-03-12T17:28:46.394Z,99205.47
2023-03-12T17:31:13.010Z,99218.00
2023-03-12T17:33:40.410Z,99206.69
2023-03-12T17:36:08.856Z,99211.19
2023-03-12T17:38:37.035Z,99209.50
2023-03-12T17:41:09.322Z,99219.22
2023-03-12T17:43:41.430Z,99218.38
2023-03-12T17:46:09.618Z,99212.19
2023-03-12T17:48:36.783Z,99217.38
2023-03-12T17:51:07.930Z,99220.81
2023-03-12T17:53:35.023Z,99223.41
2023-03-12T17:56:01.900Z,99230.25
2023-03-12T17:58:29.014Z,99229.13
2023-03-12T18:00:55.542Z,99226.34
2023-03-12T18:03:23.198Z,99225.22
2023-03-12T18:05:50.752Z,99225.81
2023-03-12T18:08:17.828Z,99239.81
2023-03-12T18:10:44.704Z,99242.09
2023-03-12T18:13:11.789Z,99239.19
2023-03-12T18:15:38.446Z,99250.69
2023-03-12T18:18:08.600Z,99254.88
2023-03-12T18:20:39.118Z,99247.53
2023-03-12T18:23:07.166Z,99257.09
2023-03-12T18:25:33.887Z,99262.25
2023-03-12T18:28:01.847Z,99256.00
2023-03-12T18:30:28.529Z,99254.19
2023-03-12T18:32:55.842Z,99262.91
2023-03-12T18:35:23.081Z,99256.66
2023-03-12T18:37:52.122Z,99258.38
2023-03-12T18:40:19.493Z,99249.66
2023-03-12T18:42:47.510Z,99251.38
2023-03-12T18:45:14.434Z,99252.31
2023-03-12T18:47:44.581Z,99259.31
2023-03-12T18:50:12.839Z,99254.94
2023-03-12T18:52:39.380Z,99261.97
2023-03-12T18:55:06.670Z,99252.22
2023-03-12T18:57:33.493Z,99263.69
2023-03-12T19:00:00.809Z,99261.97
2023-03-12T19:02:27.468Z,99261.97
2023-03-12T19:04:56.217Z,99257.53
2023-03-12T19:07:23.053Z,99263.69
2023-03-12T19:09:50.534Z,99260.97
2023-03-12T19:12:17.096Z,99255.72
2023-03-12T19:14:44.288Z,99256.53
2023-03-12T19:17:10.877Z,99253.00
2023-03-12T19:19:37.785Z,99244.06
2023-03-12T19:22:05.008Z,99246.75
2023-03-12T19:24:37.789Z,99242.28
2023-03-12T19:27:04.357Z,99232.44
2023-03-12T19:29:31.238Z,99234.13
2023-03-12T19:31:58.432Z,99235.00
2023-03-12T19:34:25.051Z,99219.88
2023-03-12T19:36:52.242Z,99227.84
2023-03-12T19:39:21.367Z,99233.13
2023-03-12T19:41:49.957Z,99226.94
2023-03-12T19:44:16.677Z,99232.16
2023-03-12T19:46:44.032Z,99224.28
2023-03-12T19:49:11.179Z,99225.94
2023-03-12T19:51:40.111Z,99218.13
2023-03-12T19:54:07.971Z,99223.28
2023-03-12T19:56:35.494Z,99214.28
2023-03-12T19:59:01.999Z,99206.25
2023-03-12T20:01:29.032Z,99213.28
2023-03-12T20:03:56.520Z,99217.69
2023-03-12T20:06:23.061Z,99216.16
2023-03-12T20:08:50.605Z,99224.16
2023-03-12T20:11:17.149Z,99220.56
2023-03-12T20:13:45.315Z,99229.19
2023-03-12T20:16:14.224Z,99222.03
2023-03-12T20:18:40.921Z,99224.50
2023-03-12T20:21:08.027Z,99230.66
2023-03-12T20:23:34.838Z,99225.22
2023-03-12T20:26:01.426Z,99227.88
2023-03-12T20:28:29.200Z,99224.38
2023-03-12T20:30:55.846Z,99225.22
2023-03-12T20:33:23.350Z,99219.09
2023-03-12T20:35:50.595Z,99220.59
2023-03-12T20:38:18.118Z,99223.44
2023-03-12T20:40:46.363Z,99219.94
2023-03-12T20:43:12.932Z,99220.78
2023-03-12T20:45:40.553Z,99213.66
2023-03-12T20:48:07.392Z,99212.66
2023-03-12T20:50:38.527Z,99209.09
2023-03-12T20:53:06.521Z,99207.22
2023-03-12T20:55:33.178Z,99204.72
2023-03-12T20:58:00.144Z,99206.19
2023-03-12T21:00:27.688Z,99201.81
2023-03-12T21:02:54.260Z,99201.81
2023-03-12T21:05:23.839Z,99189.63
2023-03-12T21:07:52.954Z,99188.59
2023-03-12T21:10:20.437Z,99190.34
2023-03-12T21:12:47.982Z,99188.75
2023-03-12T21:15:14.541Z,99188.69
2023-03-12T21:17:41.664Z,99194.06
2023-03-12T21:20:17.524Z,99192.31
2023-03-12T21:22:46.632Z,99187.91
2023-03-12T21:25:14.342Z,99186.16
2023-03-12T21:27:50.623Z,99188.00
